Time;durP1;ratioP1;P1;durP2;ratioP2;P2;SDS_P1;SDS_P2;PMS_P1;PMS_P2;Temp;Humidity;BMP_temperature;BMP_pressure;BME280_temperature;BME280_humidity;BME280_pressure;Samples;Min_cycle;Max_cycle;Signal;HPM_P1;HPM_P2
2023/01/23 00:01:14;;;;;;;40.00;25.90;;;-2.20;99.90;;;;;;5033597;28;20034;-47
2023/01/23 00:03:40;;;;;;;36.35;24.98;;;-2.30;99.90;;;;;;5033438;28;20041;-49
2023/01/23 00:06:07;;;;;;;35.00;24.63;;;-2.30;99.90;;;;;;5033745;28;20045;-48
2023/01/23 00:08:34;;;;;;;41.50;26.85;;;-2.30;99.90;;;;;;5033786;28;20128;-49
2023/01/23 00:11:01;;;;;;;43.90;29.83;;;-2.30;99.90;;;;;;5033797;28;20465;-51
2023/01/23 00:13:27;;;;;;;45.90;30.27;;;-2.40;99.90;;;;;;5033307;28;20042;-50
2023/01/23 00:15:54;;;;;;;51.80;32.15;;;-2.40;99.90;;;;;;5033174;28;20088;-49
2023/01/23 00:18:21;;;;;;;49.28;30.13;;;-2.40;99.90;;;;;;5032070;28;20042;-51
2023/01/23 00:20:48;;;;;;;47.90;29.77;;;-2.40;99.90;;;;;;5033584;28;20038;-52
2023/01/23 00:23:14;;;;;;;47.28;29.52;;;-2.50;99.90;;;;;;5037531;28;20045;-51
2023/01/23 00:25:41;;;;;;;45.08;29.90;;;-2.50;99.90;;;;;;5038582;28;20080;-49
2023/01/23 00:28:08;;;;;;;47.97;30.17;;;-2.50;99.90;;;;;;5040429;28;20068;-52
2023/01/23 00:30:34;;;;;;;45.45;29.83;;;-2.50;99.90;;;;;;5040424;28;20103;-49
2023/01/23 00:33:01;;;;;;;51.58;28.70;;;-2.60;99.90;;;;;;5039921;28;20457;-49
2023/01/23 00:35:28;;;;;;;48.40;29.42;;;-2.50;99.90;;;;;;5040133;28;20095;-49
2023/01/23 00:37:55;;;;;;;42.97;28.42;;;-2.60;99.90;;;;;;5038599;28;20056;-48
2023/01/23 00:40:22;;;;;;;44.47;28.50;;;-2.60;99.90;;;;;;5040355;28;20041;-48
2023/01/23 00:42:48;;;;;;;44.53;29.00;;;-2.60;99.90;;;;;;5039840;28;20099;-52
2023/01/23 00:45:15;;;;;;;43.65;28.40;;;-2.60;99.90;;;;;;5039903;28;20041;-48
2023/01/23 00:47:42;;;;;;;45.95;29.30;;;-2.70;99.90;;;;;;5040158;28;20049;-53
2023/01/23 00:50:09;;;;;;;43.53;28.05;;;-2.60;99.90;;;;;;5039816;28;20443;-50
2023/01/23 00:52:35;;;;;;;38.80;25.92;;;-2.60;99.90;;;;;;5038821;28;20049;-52
2023/01/23 00:55:03;;;;;;;43.00;27.70;;;-2.70;99.90;;;;;;5039924;28;20135;-49
2023/01/23 00:57:30;;;;;;;42.85;28.02;;;-2.60;99.90;;;;;;5039613;28;20037;-49
2023/01/23 00:59:57;;;;;;;44.78;28.20;;;-2.70;99.90;;;;;;5039918;28;20053;-53
2023/01/23 01:02:24;;;;;;;49.10;28.75;;;-2.70;99.90;;;;;;5038427;28;20120;-47
2023/01/23 01:04:51;;;;;;;40.58;27.50;;;-2.70;99.90;;;;;;5039443;28;20080;-49
2023/01/23 01:07:18;;;;;;;40.38;27.52;;;-2.70;99.90;;;;;;5039533;28;20077;-51
2023/01/23 01:09:46;;;;;;;46.28;27.77;;;-2.70;99.90;;;;;;5038667;28;20527;-51
2023/01/23 01:12:14;;;;;;;41.47;27.38;;;-2.70;99.90;;;;;;5038520;28;20567;-53
2023/01/23 01:14:41;;;;;;;41.50;27.55;;;-2.70;99.90;;;;;;5039637;28;20145;-48
2023/01/23 01:17:07;;;;;;;44.65;28.15;;;-2.70;99.90;;;;;;5038261;28;20056;-49
2023/01/23 01:19:34;;;;;;;40.08;26.88;;;-2.70;99.90;;;;;;5038233;28;20092;-51
2023/01/23 01:22:01;;;;;;;45.97;29.27;;;-2.70;99.90;;;;;;5039372;28;20087;-53
2023/01/23 01:24:28;;;;;;;43.28;27.05;;;-2.70;99.90;;;;;;5038582;28;20056;-48
2023/01/23 01:26:54;;;;;;;42.13;26.30;;;-2.80;99.90;;;;;;5037946;28;20056;-46
2023/01/23 01:29:21;;;;;;;38.10;25.88;;;-2.80;99.90;;;;;;5038110;28;20548;-50
2023/01/23 01:31:48;;;;;;;35.50;25.60;;;-2.80;99.90;;;;;;5038252;28;20057;-50
2023/01/23 01:34:15;;;;;;;42.20;27.08;;;-2.80;99.90;;;;;;5036252;28;20050;-49
2023/01/23 01:36:42;;;;;;;37.83;24.05;;;-2.80;99.90;;;;;;5035209;28;20091;-53
2023/01/23 01:39:08;;;;;;;37.40;24.67;;;-2.80;99.90;;;;;;5034780;28;20060;-52
2023/01/23 01:41:35;;;;;;;33.80;23.25;;;-2.80;99.90;;;;;;5035472;28;20057;-46
2023/01/23 01:44:02;;;;;;;34.10;23.05;;;-2.80;99.90;;;;;;5034858;28;20038;-49
2023/01/23 01:46:29;;;;;;;30.48;21.35;;;-2.80;99.90;;;;;;5036151;28;20049;-49
2023/01/23 01:48:56;;;;;;;36.17;21.77;;;-2.80;99.90;;;;;;5034596;28;20049;-52
2023/01/23 01:51:23;;;;;;;25.63;18.25;;;-2.90;99.90;;;;;;5035958;28;20404;-49
2023/01/23 01:53:49;;;;;;;29.67;18.58;;;-2.80;99.90;;;;;;5035177;28;20061;-50
2023/01/23 01:56:16;;;;;;;25.92;17.20;;;-2.80;99.90;;;;;;5035904;28;20041;-51
2023/01/23 01:58:43;;;;;;;24.40;18.17;;;-2.90;99.90;;;;;;5036237;28;20048;-47
2023/01/23 02:01:10;;;;;;;28.90;19.92;;;-2.90;99.90;;;;;;5035994;28;20516;-50
2023/01/23 02:03:37;;;;;;;38.83;25.58;;;-2.90;99.90;;;;;;5034799;28;20045;-50
2023/01/23 02:06:03;;;;;;;40.03;26.05;;;-2.90;99.90;;;;;;5036098;28;20038;-52
2023/01/23 02:08:30;;;;;;;38.35;24.85;;;-3.00;99.90;;;;;;5034865;28;20050;-48
2023/01/23 02:11:00;;;;;;;41.92;26.95;;;-3.00;99.90;;;;;;5034229;28;20132;-50
2023/01/23 02:13:31;;;;;;;40.50;25.17;;;-3.00;99.90;;;;;;5034750;28;20061;-50
2023/01/23 02:15:58;;;;;;;40.85;26.30;;;-3.00;99.90;;;;;;5034392;28;20513;-53
2023/01/23 02:18:25;;;;;;;34.55;23.30;;;-3.00;99.90;;;;;;5034594;28;20095;-47
2023/01/23 02:20:52;;;;;;;39.85;25.30;;;-3.10;99.90;;;;;;5036033;28;20034;-50
2023/01/23 02:23:19;;;;;;;36.53;24.55;;;-3.10;99.90;;;;;;5035568;28;20045;-52
2023/01/23 02:25:46;;;;;;;37.63;24.60;;;-3.10;99.90;;;;;;5034136;28;20057;-48
2023/01/23 02:28:15;;;;;;;41.25;25.80;;;-3.10;99.90;;;;;;5034189;28;20045;-51
2023/01/23 02:30:42;;;;;;;36.22;24.33;;;-3.10;99.90;;;;;;5017624;28;20527;-48
2023/01/23 02:33:09;;;;;;;37.15;23.98;;;-3.10;99.90;;;;;;5035488;28;20048;-50
2023/01/23 02:35:35;;;;;;;40.45;26.02;;;-3.20;99.90;;;;;;5033886;28;20050;-47
2023/01/23 02:38:08;;;;;;;40.13;25.80;;;-3.20;99.90;;;;;;5033629;28;20050;-47
2023/01/23 02:40:38;;;;;;;40.88;25.10;;;-3.20;99.90;;;;;;5033685;28;20124;-49
2023/01/23 02:43:07;;;;;;;41.30;24.75;;;-3.20;99.90;;;;;;5033975;28;20452;-50
2023/01/23 02:45:35;;;;;;;40.30;24.73;;;-3.20;99.90;;;;;;5033441;28;20084;-49
2023/01/23 02:48:04;;;;;;;34.75;23.38;;;-3.10;99.90;;;;;;5034067;28;20045;-51
2023/01/23 02:50:31;;;;;;;38.00;25.27;;;-3.10;99.90;;;;;;5033863;28;20063;-52
2023/01/23 02:52:58;;;;;;;40.80;25.98;;;-3.10;99.90;;;;;;5035283;28;20500;-48
2023/01/23 02:55:29;;;;;;;45.90;26.45;;;-3.20;99.90;;;;;;5033773;28;20080;-48
2023/01/23 03:00:14;;;;;;;42.67;27.77;;;-3.20;99.90;;;;;;5033698;28;20053;-47
2023/01/23 03:00:45;;;;;;;39.85;26.35;;;-3.20;99.90;;;;;;5033698;28;20052;-47
2023/01/23 03:03:12;;;;;;;41.47;25.92;;;-3.20;99.90;;;;;;5034969;28;20111;-46
2023/01/23 03:05:39;;;;;;;37.63;24.42;;;-3.20;99.90;;;;;;5034988;28;20033;-49
2023/01/23 03:08:06;;;;;;;38.58;26.05;;;-3.20;99.90;;;;;;5034889;28;20420;-49
2023/01/23 03:10:32;;;;;;;35.30;25.30;;;-3.20;99.90;;;;;;5033269;28;20068;-51
2023/01/23 03:13:06;;;;;;;39.03;24.45;;;-3.20;99.90;;;;;;5033534;28;20104;-49
2023/01/23 03:15:32;;;;;;;35.08;23.70;;;-3.30;99.90;;;;;;5033024;28;20054;-48
2023/01/23 03:18:01;;;;;;;39.83;24.30;;;-3.20;99.90;;;;;;5033395;28;20068;-48
2023/01/23 03:20:29;;;;;;;43.45;26.33;;;-3.30;99.90;;;;;;5034788;28;20540;-47
2023/01/23 03:22:56;;;;;;;37.22;24.80;;;-3.30;99.90;;;;;;5033342;28;20049;-48
2023/01/23 03:25:22;;;;;;;33.65;21.80;;;-3.30;99.90;;;;;;5033490;28;20041;-48
2023/01/23 03:27:49;;;;;;;35.38;23.65;;;-3.20;99.90;;;;;;5032779;28;20049;-53
2023/01/23 03:30:16;;;;;;;31.55;21.38;;;-3.20;99.90;;;;;;5033095;28;20041;-51
2023/01/23 03:32:43;;;;;;;25.63;17.52;;;-3.20;99.90;;;;;;5032988;28;20042;-46
2023/01/23 03:35:12;;;;;;;24.33;16.83;;;-3.10;99.90;;;;;;5034174;28;20551;-51
2023/01/23 03:37:39;;;;;;;23.10;16.15;;;-3.10;99.90;;;;;;5016557;28;20037;-47
2023/01/23 03:42:52;;;;;;;16.13;11.15;;;-3.00;99.90;;;;;;5032890;28;20405;-49
2023/01/23 03:45:25;;;;;;;16.30;10.73;;;-3.10;99.90;;;;;;5032789;28;20087;-47
2023/01/23 03:47:51;;;;;;;15.75;10.13;;;-3.10;99.90;;;;;;5033117;28;20045;-48
2023/01/23 03:50:18;;;;;;;15.63;10.48;;;-3.20;99.90;;;;;;5016114;28;20068;-51
2023/01/23 03:52:46;;;;;;;13.57;9.65;;;-3.10;99.90;;;;;;5032994;28;20044;-49
2023/01/23 03:55:13;;;;;;;26.35;17.23;;;-3.10;99.90;;;;;;5032866;28;20446;-52
2023/01/23 03:57:41;;;;;;;28.80;19.77;;;-3.20;99.90;;;;;;5031931;28;20064;-51
2023/01/23 04:00:21;;;;;;;28.98;20.20;;;-3.20;99.90;;;;;;5032376;28;20046;-49
2023/01/23 04:02:59;;;;;;;32.88;20.80;;;-3.10;99.90;;;;;;5033973;28;20124;-50
2023/01/23 04:05:27;;;;;;;32.15;21.20;;;-3.10;99.90;;;;;;5016213;28;20095;-51
2023/01/23 04:07:54;;;;;;;34.75;22.38;;;-3.20;99.90;;;;;;5032176;28;20068;-49
2023/01/23 04:10:21;;;;;;;30.00;20.10;;;-3.20;99.90;;;;;;5032487;28;20067;-49
2023/01/23 04:12:52;;;;;;;34.22;23.15;;;-3.20;99.90;;;;;;5032559;28;20104;-49
2023/01/23 04:15:19;;;;;;;32.78;23.25;;;-3.20;99.90;;;;;;5033481;28;20053;-49
2023/01/23 04:17:46;;;;;;;35.90;22.83;;;-3.20;99.90;;;;;;5032202;28;20107;-50
2023/01/23 04:20:13;;;;;;;34.92;22.60;;;-3.20;99.90;;;;;;5033935;28;20041;-49
2023/01/23 04:22:42;;;;;;;32.30;21.73;;;-3.20;99.90;;;;;;5032209;28;20046;-48
2023/01/23 04:25:09;;;;;;;36.13;23.38;;;-3.20;99.90;;;;;;5032231;28;20041;-49
2023/01/23 04:27:35;;;;;;;30.98;22.17;;;-3.20;99.90;;;;;;5032027;28;20088;-54
2023/01/23 04:30:03;;;;;;;31.55;21.75;;;-3.20;99.90;;;;;;5032514;28;20053;-51
2023/01/23 04:32:31;;;;;;;34.55;22.95;;;-3.20;99.90;;;;;;5032568;28;20056;-48
2023/01/23 04:34:58;;;;;;;32.83;22.63;;;-3.10;99.90;;;;;;5033831;28;20061;-49
2023/01/23 04:37:26;;;;;;;36.05;23.55;;;-3.10;99.90;;;;;;5031962;28;20069;-49
2023/01/23 04:39:53;;;;;;;31.33;23.00;;;-3.10;99.90;;;;;;5032147;28;20064;-50
2023/01/23 04:42:21;;;;;;;31.92;21.08;;;-3.10;99.90;;;;;;5032297;28;20064;-48
2023/01/23 04:45:01;;;;;;;32.67;21.90;;;-3.10;99.90;;;;;;5032502;28;20049;-47
2023/01/23 04:47:27;;;;;;;29.80;20.73;;;-3.10;99.90;;;;;;5033266;28;20045;-46
2023/01/23 04:49:55;;;;;;;33.45;22.75;;;-3.10;99.90;;;;;;5032056;28;20124;-46
2023/01/23 04:52:22;;;;;;;29.80;21.30;;;-3.00;99.90;;;;;;5031691;28;20100;-48
2023/01/23 04:54:55;;;;;;;35.28;23.95;;;-3.00;99.90;;;;;;5033054;28;20037;-46
2023/01/23 04:57:22;;;;;;;34.92;22.63;;;-3.00;99.90;;;;;;5032848;28;20038;-51
2023/01/23 04:59:54;;;;;;;33.35;23.35;;;-3.00;99.90;;;;;;5031763;28;20447;-49
2023/01/23 05:02:21;;;;;;;32.15;22.30;;;-3.00;99.90;;;;;;5031559;28;20044;-51
2023/01/23 05:04:48;;;;;;;29.55;21.52;;;-3.00;99.90;;;;;;5033529;28;20121;-48
2023/01/23 05:07:15;;;;;;;33.55;21.35;;;-3.00;99.90;;;;;;5031759;28;20041;-48
2023/01/23 05:09:56;;;;;;;31.75;20.00;;;-3.00;99.90;;;;;;5033798;28;20138;-49
2023/01/23 05:12:23;;;;;;;28.83;20.00;;;-2.90;99.90;;;;;;5035675;28;20416;-51
2023/01/23 05:14:49;;;;;;;33.45;21.33;;;-3.00;99.90;;;;;;5018995;28;20050;-52
2023/01/23 05:17:16;;;;;;;29.58;20.52;;;-3.00;99.90;;;;;;5035456;28;20091;-49
2023/01/23 05:19:48;;;;;;;29.65;21.23;;;-3.00;99.90;;;;;;5035853;28;20057;-47
2023/01/23 05:22:16;;;;;;;33.80;20.95;;;-3.00;99.90;;;;;;5036753;28;20042;-50
2023/01/23 05:24:43;;;;;;;28.92;20.65;;;-3.00;99.90;;;;;;5035654;28;20388;-50
2023/01/23 05:27:10;;;;;;;33.35;19.67;;;-3.00;99.90;;;;;;5035259;28;20107;-49
2023/01/23 05:29:40;;;;;;;28.60;20.23;;;-3.00;99.90;;;;;;5035064;28;20469;-50
2023/01/23 05:32:14;;;;;;;31.02;19.70;;;-3.00;99.90;;;;;;5035636;28;20076;-51
2023/01/23 05:34:41;;;;;;;29.70;19.30;;;-3.00;99.90;;;;;;5036670;28;20107;-50
2023/01/23 05:37:24;;;;;;;32.33;20.02;;;-3.00;99.90;;;;;;5035473;28;20120;-51
2023/01/23 05:39:58;;;;;;;30.35;20.20;;;-3.10;99.90;;;;;;5035398;28;20054;-50
2023/01/23 05:42:41;;;;;;;33.30;20.38;;;-3.10;99.90;;;;;;5035273;28;20046;-49
2023/01/23 05:45:37;;;;;;;29.48;20.65;;;-3.10;99.90;;;;;;4999567;28;20565;-49
2023/01/23 05:48:09;;;;;;;32.70;20.35;;;-3.20;99.90;;;;;;5035061;28;20481;-53
2023/01/23 05:50:37;;;;;;;32.05;21.10;;;-3.10;99.90;;;;;;5035014;28;20507;-52
2023/01/23 05:53:03;;;;;;;32.92;21.33;;;-3.20;99.90;;;;;;5035091;28;20053;-51
2023/01/23 05:55:32;;;;;;;31.90;21.00;;;-3.20;99.90;;;;;;5035112;28;20041;-53
2023/01/23 05:57:58;;;;;;;31.50;20.40;;;-3.10;99.90;;;;;;5035756;28;20046;-51
2023/01/23 06:00:28;;;;;;;26.30;18.77;;;-3.10;99.90;;;;;;5036203;28;20563;-54
2023/01/23 06:03:30;;;;;;;30.23;19.25;;;-3.10;99.90;;;;;;4955820;29;20428;-55
2023/01/23 06:06:06;;;;;;;27.73;18.77;;;-3.00;99.90;;;;;;5020658;28;20046;-53
2023/01/23 06:08:33;;;;;;;29.20;19.20;;;-3.10;99.90;;;;;;5034604;28;20045;-54
2023/01/23 06:11:02;;;;;;;29.60;19.50;;;-3.10;99.90;;;;;;5034195;28;20076;-46
2023/01/23 06:13:29;;;;;;;26.83;18.38;;;-3.10;99.90;;;;;;5034236;28;20056;-45
2023/01/23 06:15:56;;;;;;;30.60;19.65;;;-3.10;99.90;;;;;;5033948;28;20053;-50
2023/01/23 06:18:26;;;;;;;32.28;20.73;;;-3.10;99.90;;;;;;5035220;28;20493;-45
2023/01/23 06:20:53;;;;;;;29.77;19.08;;;-3.10;99.90;;;;;;5034176;28;20396;-47
2023/01/23 06:23:20;;;;;;;30.73;19.73;;;-3.10;99.90;;;;;;5034276;28;20416;-48
2023/01/23 06:25:46;;;;;;;29.70;18.92;;;-3.00;99.90;;;;;;5034202;28;20046;-47
2023/01/23 06:28:13;;;;;;;29.42;18.63;;;-3.00;99.90;;;;;;5033885;28;20103;-51
2023/01/23 06:30:42;;;;;;;27.83;18.90;;;-3.10;99.90;;;;;;5034049;28;20563;-51
2023/01/23 06:33:20;;;;;;;27.75;18.25;;;-3.00;99.90;;;;;;5033847;28;20455;-52
2023/01/23 06:35:47;;;;;;;29.25;18.77;;;-3.00;99.90;;;;;;5033615;28;20069;-47
2023/01/23 06:38:14;;;;;;;25.67;17.48;;;-3.00;99.90;;;;;;5033834;28;20513;-51
2023/01/23 06:40:41;;;;;;;28.08;18.25;;;-2.90;99.90;;;;;;5033590;28;20171;-45
2023/01/23 06:43:20;;;;;;;34.65;20.52;;;-3.00;99.90;;;;;;5033493;28;20045;-47
2023/01/23 06:45:47;;;;;;;32.78;19.52;;;-3.00;99.90;;;;;;5033315;28;20045;-48
2023/01/23 06:48:15;;;;;;;31.35;19.70;;;-3.00;99.90;;;;;;5033417;28;20055;-54
2023/01/23 06:50:42;;;;;;;28.27;19.73;;;-3.00;99.90;;;;;;5033342;28;20078;-49
2023/01/23 06:53:09;;;;;;;26.55;19.20;;;-3.00;99.90;;;;;;5033300;28;20584;-50
2023/01/23 06:55:36;;;;;;;31.38;19.95;;;-3.00;99.90;;;;;;5033282;28;20051;-48
2023/01/23 06:58:03;;;;;;;29.75;19.48;;;-3.00;99.90;;;;;;5033801;28;20046;-49
2023/01/23 07:00:30;;;;;;;31.15;20.63;;;-3.00;99.90;;;;;;5034400;28;20048;-48
2023/01/23 07:03:02;;;;;;;31.25;19.90;;;-3.00;99.90;;;;;;5033493;28;20054;-50
2023/01/23 07:05:29;;;;;;;32.20;20.63;;;-3.10;99.90;;;;;;5033118;28;20179;-49
2023/01/23 07:07:56;;;;;;;33.38;20.08;;;-3.10;99.90;;;;;;5033259;28;20060;-45
2023/01/23 07:10:22;;;;;;;31.95;20.90;;;-3.20;99.90;;;;;;5033604;28;20401;-50
2023/01/23 07:12:50;;;;;;;31.92;21.40;;;-3.20;99.90;;;;;;5033051;28;20073;-49
2023/01/23 07:15:17;;;;;;;35.53;20.63;;;-3.20;99.90;;;;;;5033108;28;20104;-51
2023/01/23 07:17:43;;;;;;;33.45;21.65;;;-3.20;99.90;;;;;;5033115;28;20416;-50
2023/01/23 07:20:11;;;;;;;34.13;21.95;;;-3.20;99.90;;;;;;5016721;28;20053;-49
2023/01/23 07:22:41;;;;;;;33.22;22.13;;;-3.30;99.90;;;;;;5033479;28;20429;-47
2023/01/23 07:25:08;;;;;;;31.27;21.35;;;-3.30;99.90;;;;;;5034263;28;20071;-48
2023/01/23 07:27:35;;;;;;;26.13;17.75;;;-3.40;99.90;;;;;;5034511;28;20136;-48
2023/01/23 07:30:01;;;;;;;28.02;17.65;;;-3.30;99.90;;;;;;5034437;28;20384;-49
2023/01/23 07:32:28;;;;;;;28.90;19.17;;;-3.30;99.90;;;;;;5032289;28;20199;-48
2023/01/23 07:34:55;;;;;;;27.80;18.25;;;-3.30;99.90;;;;;;5034586;28;20034;-53
2023/01/23 07:37:21;;;;;;;21.23;14.50;;;-3.40;99.90;;;;;;5033691;28;20045;-51
2023/01/23 07:39:49;;;;;;;19.10;12.68;;;-3.40;99.90;;;;;;5033955;28;20049;-48
2023/01/23 07:42:16;;;;;;;21.15;14.02;;;-3.30;99.90;;;;;;5034046;28;20045;-47
2023/01/23 07:44:43;;;;;;;20.33;13.55;;;-3.30;99.90;;;;;;5033987;28;20041;-48
2023/01/23 07:47:09;;;;;;;20.65;14.45;;;-3.30;99.90;;;;;;5034009;28;20092;-45
2023/01/23 07:49:36;;;;;;;21.67;14.30;;;-3.30;99.90;;;;;;5032941;28;20172;-48
2023/01/23 07:52:03;;;;;;;22.58;14.75;;;-3.30;99.90;;;;;;5034029;28;20092;-47
2023/01/23 07:54:29;;;;;;;23.70;14.90;;;-3.30;99.90;;;;;;5034053;28;20389;-49
2023/01/23 07:56:56;;;;;;;21.98;14.52;;;-3.30;99.90;;;;;;5033377;28;20042;-47
2023/01/23 07:59:23;;;;;;;20.52;14.32;;;-3.30;99.90;;;;;;5033837;28;20080;-50
2023/01/23 08:01:51;;;;;;;26.20;16.45;;;-3.40;99.90;;;;;;5033764;28;20420;-50
2023/01/23 08:04:18;;;;;;;24.55;15.60;;;-3.40;99.90;;;;;;5033973;28;20050;-48
2023/01/23 08:06:44;;;;;;;23.35;16.00;;;-3.30;99.90;;;;;;5034462;28;20045;-47
2023/01/23 08:09:11;;;;;;;25.05;15.18;;;-3.30;99.90;;;;;;5053557;28;20045;-48
2023/01/23 08:11:38;;;;;;;25.23;15.85;;;-3.30;99.90;;;;;;5053618;28;20037;-50
2023/01/23 08:14:05;;;;;;;24.83;15.80;;;-3.30;99.90;;;;;;5051121;28;20144;-47
2023/01/23 08:16:32;;;;;;;27.80;16.70;;;-3.30;99.90;;;;;;5053626;28;20051;-53
2023/01/23 08:18:58;;;;;;;24.77;16.73;;;-3.30;99.90;;;;;;5051614;28;20048;-48
2023/01/23 08:21:25;;;;;;;23.77;16.30;;;-3.30;99.90;;;;;;5053418;28;20041;-53
2023/01/23 08:23:52;;;;;;;27.52;17.58;;;-3.30;99.90;;;;;;5052086;28;20451;-50
2023/01/23 08:26:18;;;;;;;25.30;16.75;;;-3.30;99.90;;;;;;5052727;28;20068;-51
2023/01/23 08:28:45;;;;;;;25.88;17.08;;;-3.30;99.90;;;;;;5053368;28;20484;-45
2023/01/23 08:31:12;;;;;;;27.48;16.55;;;-3.30;99.90;;;;;;5034748;28;20125;-48
2023/01/23 08:33:39;;;;;;;28.05;19.13;;;-3.30;99.90;;;;;;5053215;28;20488;-48
2023/01/23 08:36:05;;;;;;;28.38;18.13;;;-3.20;99.90;;;;;;5052738;28;20095;-49
2023/01/23 08:38:35;;;;;;;30.15;18.25;;;-3.20;99.90;;;;;;5053156;28;20045;-51
2023/01/23 08:41:02;;;;;;;27.20;18.00;;;-3.20;99.90;;;;;;5053377;28;20037;-49
2023/01/23 08:43:29;;;;;;;26.25;17.05;;;-3.20;99.90;;;;;;5053594;28;20092;-53
2023/01/23 08:45:55;;;;;;;29.08;18.35;;;-3.20;99.90;;;;;;5057496;28;20454;-47
2023/01/23 08:48:22;;;;;;;24.15;16.92;;;-3.20;99.90;;;;;;5057244;28;20044;-50
2023/01/23 08:50:49;;;;;;;29.23;19.55;;;-3.10;99.90;;;;;;5057271;28;20037;-48
2023/01/23 08:53:16;;;;;;;25.27;18.17;;;-3.10;99.90;;;;;;5056611;28;20068;-45
2023/01/23 08:55:43;;;;;;;28.40;18.83;;;-3.10;99.90;;;;;;5057034;28;20099;-45
2023/01/23 08:58:11;;;;;;;25.60;17.83;;;-3.10;99.90;;;;;;5056518;28;20045;-50
2023/01/23 09:00:38;;;;;;;27.20;18.73;;;-3.10;99.90;;;;;;5057130;28;20049;-48
2023/01/23 09:03:05;;;;;;;29.10;18.38;;;-3.10;99.90;;;;;;5057125;28;20041;-46
2023/01/23 09:05:32;;;;;;;30.30;17.83;;;-3.00;99.90;;;;;;5056765;28;20060;-48
2023/01/23 09:07:59;;;;;;;26.05;18.25;;;-3.00;99.90;;;;;;5056026;28;20053;-47
2023/01/23 09:10:25;;;;;;;28.30;19.98;;;-2.90;99.90;;;;;;5056876;28;20106;-46
2023/01/23 09:12:52;;;;;;;33.55;25.42;;;-2.90;99.90;;;;;;5057102;28;20484;-52
2023/01/23 09:15:19;;;;;;;42.05;32.20;;;-2.80;99.90;;;;;;5056506;28;20122;-50
2023/01/23 09:17:46;;;;;;;48.03;36.00;;;-2.80;99.90;;;;;;5056054;28;20049;-49
2023/01/23 09:20:14;;;;;;;55.15;38.58;;;-2.80;99.90;;;;;;5056504;28;20500;-48
2023/01/23 09:22:41;;;;;;;52.03;41.35;;;-2.70;99.90;;;;;;5055862;28;20045;-51
2023/01/23 09:25:07;;;;;;;55.85;42.45;;;-2.70;99.90;;;;;;5056462;28;20041;-48
2023/01/23 09:27:34;;;;;;;55.45;43.28;;;-2.70;99.90;;;;;;5055801;28;20181;-54
2023/01/23 09:30:01;;;;;;;52.78;41.28;;;-2.60;99.90;;;;;;5056597;28;20037;-49
2023/01/23 09:32:27;;;;;;;49.60;40.50;;;-2.50;99.90;;;;;;5056462;28;20041;-46
2023/01/23 09:34:54;;;;;;;48.28;38.90;;;-2.50;99.90;;;;;;5056424;28;20075;-49
2023/01/23 09:37:21;;;;;;;49.40;36.05;;;-2.40;99.90;;;;;;5054339;28;20067;-49
2023/01/23 09:39:48;;;;;;;43.63;32.00;;;-2.40;99.90;;;;;;5056327;28;20424;-46
2023/01/23 09:42:14;;;;;;;40.10;30.27;;;-2.30;99.90;;;;;;5056470;28;20041;-48
2023/01/23 09:44:41;;;;;;;36.38;28.02;;;-2.20;99.90;;;;;;5055642;28;20033;-51
2023/01/23 09:47:08;;;;;;;35.45;25.42;;;-2.10;99.90;;;;;;5056067;28;20037;-46
2023/01/23 09:49:35;;;;;;;37.83;26.83;;;-2.00;99.90;;;;;;5054872;28;20053;-48
2023/01/23 09:52:02;;;;;;;42.10;28.27;;;-1.90;99.90;;;;;;5056073;28;20049;-53
2023/01/23 09:54:29;;;;;;;41.28;29.42;;;-1.90;99.90;;;;;;5055905;28;20091;-47
2023/01/23 09:56:55;;;;;;;41.67;27.73;;;-1.80;99.90;;;;;;5055320;28;20037;-50
2023/01/23 09:59:22;;;;;;;37.20;25.33;;;-1.70;99.90;;;;;;5056093;28;20033;-46
2023/01/23 10:01:49;;;;;;;50.83;30.30;;;-1.70;99.90;;;;;;5055859;28;20474;-51
2023/01/23 10:04:16;;;;;;;44.95;32.67;;;-1.60;99.90;;;;;;5055908;28;20045;-49
2023/01/23 10:06:42;;;;;;;46.28;31.30;;;-1.50;99.90;;;;;;5055096;28;20427;-53
2023/01/23 10:09:09;;;;;;;43.60;29.15;;;-1.40;99.90;;;;;;5049529;28;20102;-47
2023/01/23 10:11:36;;;;;;;35.88;25.27;;;-1.40;99.90;;;;;;5075245;28;20620;-47
2023/01/23 10:14:03;;;;;;;34.83;24.45;;;-1.30;99.90;;;;;;5074638;28;20560;-51
2023/01/23 10:16:29;;;;;;;39.03;26.48;;;-1.30;99.90;;;;;;5074559;28;20037;-46
2023/01/23 10:19:10;;;;;;;43.47;28.73;;;-1.20;99.90;;;;;;5050416;28;20064;-51
2023/01/23 10:21:37;;;;;;;39.35;28.08;;;-1.10;99.90;;;;;;5055940;28;20460;-48
2023/01/23 10:24:03;;;;;;;41.03;29.30;;;-1.10;99.90;;;;;;5053653;28;20400;-49
2023/01/23 10:26:30;;;;;;;36.58;25.95;;;-1.00;99.90;;;;;;5055344;28;20108;-48
2023/01/23 10:28:57;;;;;;;39.78;28.02;;;-1.00;99.90;;;;;;5054505;28;20127;-51
2023/01/23 10:31:24;;;;;;;40.60;30.27;;;-0.90;99.90;;;;;;5053964;28;20055;-50
2023/01/23 10:33:51;;;;;;;44.28;31.02;;;-0.90;99.90;;;;;;5054033;28;20052;-50
2023/01/23 10:36:17;;;;;;;45.30;33.22;;;-0.80;99.90;;;;;;5054659;28;20055;-46
2023/01/23 10:38:49;;;;;;;47.85;33.08;;;-0.60;99.90;;;;;;5055219;28;20051;-49
2023/01/23 10:41:18;;;;;;;42.78;32.38;;;-0.60;99.90;;;;;;5052999;28;20484;-47
2023/01/23 10:43:48;;;;;;;49.15;33.13;;;-0.40;99.90;;;;;;5055417;28;20472;-48
2023/01/23 10:46:15;;;;;;;43.75;32.95;;;-0.30;99.90;;;;;;5054185;28;20110;-49
2023/01/23 10:48:42;;;;;;;40.60;31.55;;;-0.20;99.90;;;;;;5055269;28;20458;-53
2023/01/23 10:51:09;;;;;;;41.88;32.30;;;-0.10;99.90;;;;;;5053691;28;20451;-48
2023/01/23 10:53:35;;;;;;;44.22;32.60;;;0.00;99.90;;;;;;5054788;28;20037;-48
2023/01/23 10:56:02;;;;;;;43.95;32.83;;;0.00;99.90;;;;;;5054118;28;20994;-51
2023/01/23 10:58:29;;;;;;;43.83;31.95;;;0.10;99.90;;;;;;5068638;28;20086;-52
2023/01/23 11:00:56;;;;;;;40.85;31.95;;;0.20;99.90;;;;;;5054385;28;20040;-52
2023/01/23 11:03:23;;;;;;;44.33;32.33;;;0.20;99.90;;;;;;5061356;28;20041;-50
2023/01/23 11:05:49;;;;;;;45.83;32.55;;;0.30;99.90;;;;;;5073658;28;20041;-49
2023/01/23 11:08:18;;;;;;;45.15;36.22;;;0.30;99.90;;;;;;5072474;28;20086;-49
2023/01/23 11:10:45;;;;;;;47.67;35.78;;;0.40;99.90;;;;;;5073397;28;20052;-53
2023/01/23 11:13:12;;;;;;;48.72;35.17;;;0.40;99.90;;;;;;5073852;28;20079;-55
2023/01/23 11:15:40;;;;;;;48.88;34.83;;;0.40;99.90;;;;;;5073250;28;20057;-53
2023/01/23 11:18:07;;;;;;;43.58;33.78;;;0.50;99.90;;;;;;5073459;28;20049;-48
2023/01/23 11:20:34;;;;;;;43.47;33.40;;;0.50;99.90;;;;;;5073436;28;20042;-48
2023/01/23 11:23:01;;;;;;;46.95;34.35;;;0.50;99.90;;;;;;5073571;28;20063;-54
2023/01/23 11:25:28;;;;;;;49.97;34.22;;;0.60;99.90;;;;;;5054216;28;20091;-47
2023/01/23 11:27:55;;;;;;;47.55;34.47;;;0.60;99.90;;;;;;5053059;28;20464;-49
2023/01/23 11:30:22;;;;;;;46.90;34.42;;;0.70;99.90;;;;;;5054180;28;20049;-52
2023/01/23 11:32:48;;;;;;;47.15;36.03;;;0.70;99.90;;;;;;5054297;28;20044;-51
2023/01/23 11:35:15;;;;;;;44.42;34.33;;;0.80;99.90;;;;;;5054075;28;20044;-53
2023/01/23 11:37:42;;;;;;;50.53;36.67;;;0.80;99.90;;;;;;5053866;28;20045;-51
2023/01/23 11:40:09;;;;;;;52.55;35.97;;;0.80;99.90;;;;;;5054318;28;20071;-46
2023/01/23 11:42:37;;;;;;;49.55;36.28;;;0.90;99.90;;;;;;5047322;28;20051;-49
2023/01/23 11:45:04;;;;;;;49.72;36.97;;;1.00;99.90;;;;;;5047527;28;20044;-54
2023/01/23 11:47:31;;;;;;;48.08;36.97;;;1.10;99.90;;;;;;5053984;28;20147;-51
2023/01/23 11:49:57;;;;;;;50.10;36.97;;;1.10;99.90;;;;;;5053888;28;20099;-49
2023/01/23 11:52:24;;;;;;;49.40;36.75;;;1.20;99.90;;;;;;5047332;28;20484;-50
2023/01/23 11:54:51;;;;;;;48.97;35.95;;;1.30;99.90;;;;;;5062670;28;20083;-49
2023/01/23 11:57:18;;;;;;;49.95;34.20;;;1.30;99.90;;;;;;5047049;28;20052;-50
2023/01/23 11:59:45;;;;;;;44.35;34.80;;;1.40;99.90;;;;;;5071580;28;20068;-52
2023/01/23 12:02:11;;;;;;;45.20;33.33;;;1.40;99.90;;;;;;5073058;28;20032;-50
2023/01/23 12:04:38;;;;;;;41.42;32.92;;;1.50;99.90;;;;;;5069902;28;20480;-52
2023/01/23 12:07:05;;;;;;;43.17;33.85;;;1.50;99.90;;;;;;5052462;28;20064;-53
2023/01/23 12:09:32;;;;;;;46.25;31.25;;;1.60;99.90;;;;;;5053534;28;20045;-51
2023/01/23 12:11:58;;;;;;;44.92;32.08;;;1.60;99.90;;;;;;5053175;28;20090;-53
2023/01/23 12:14:25;;;;;;;42.28;31.75;;;1.60;99.90;;;;;;5053385;28;20048;-47
2023/01/23 12:16:52;;;;;;;41.53;30.60;;;1.60;99.90;;;;;;5053343;28;20045;-54
2023/01/23 12:19:18;;;;;;;42.38;28.73;;;1.60;99.90;;;;;;5052920;28;20450;-52
2023/01/23 12:21:45;;;;;;;40.85;31.13;;;1.60;99.90;;;;;;5053420;28;20060;-55
2023/01/23 12:24:12;;;;;;;44.08;35.08;;;1.70;99.90;;;;;;5053622;28;20500;-50
2023/01/23 12:26:39;;;;;;;44.63;34.97;;;1.70;99.90;;;;;;5053332;28;20090;-47
2023/01/23 12:29:05;;;;;;;48.72;35.97;;;1.80;99.90;;;;;;5053535;28;20041;-55
2023/01/23 12:31:32;;;;;;;44.88;35.05;;;1.80;99.90;;;;;;5071859;28;20036;-49
2023/01/23 12:33:59;;;;;;;47.85;35.20;;;1.90;99.90;;;;;;5072599;28;20051;-48